createdAt,value
2023-01-28T00:00:52.038Z,2.70
2023-01-28T00:03:18.795Z,3.72
2023-01-28T00:05:45.400Z,3.85
2023-01-28T00:08:13.681Z,4.28
2023-01-28T00:10:41.246Z,3.25
2023-01-28T00:13:07.913Z,5.73
2023-01-28T00:15:34.816Z,3.70
2023-01-28T00:18:01.356Z,5.63
2023-01-28T00:20:27.949Z,4.05
2023-01-28T00:22:54.533Z,5.13
2023-01-28T00:25:21.212Z,4.65
2023-01-28T00:27:49.480Z,6.30
2023-01-28T00:30:16.206Z,7.05
2023-01-28T00:32:44.247Z,4.60
2023-01-28T00:35:11.601Z,4.18
2023-01-28T00:37:38.262Z,5.47
2023-01-28T00:40:05.228Z,3.15
2023-01-28T00:42:32.441Z,4.47
2023-01-28T00:44:58.994Z,3.50
2023-01-28T00:47:25.542Z,4.47
2023-01-28T00:49:52.105Z,5.72
2023-01-28T00:52:18.690Z,4.03
2023-01-28T00:54:45.293Z,4.07
2023-01-28T00:57:12.720Z,4.55
2023-01-28T00:59:39.349Z,5.05
2023-01-28T01:02:12.406Z,2.83
2023-01-28T01:04:40.244Z,2.88
2023-01-28T01:07:07.109Z,3.97
2023-01-28T01:09:33.681Z,4.82
2023-01-28T01:12:00.320Z,2.95
2023-01-28T01:14:26.966Z,4.53
2023-01-28T01:16:53.562Z,3.13
2023-01-28T01:19:20.124Z,4.53
2023-01-28T01:21:50.731Z,3.42
2023-01-28T01:24:17.671Z,5.15
2023-01-28T01:26:44.349Z,4.30
2023-01-28T01:29:10.932Z,3.33
2023-01-28T01:31:37.594Z,3.00
2023-01-28T01:34:04.275Z,4.82
2023-01-28T01:36:31.273Z,3.22
2023-01-28T01:38:58.077Z,4.55
2023-01-28T01:41:30.973Z,9.43
2023-01-28T01:43:57.581Z,5.30
2023-01-28T01:46:28.470Z,2.75
2023-01-28T01:48:56.797Z,5.15
2023-01-28T01:51:27.223Z,5.60
2023-01-28T01:53:55.491Z,4.60
2023-01-28T01:56:24.956Z,4.18
2023-01-28T01:58:54.585Z,5.72
2023-01-28T02:01:23.264Z,5.55
2023-01-28T02:04:03.824Z,3.42
2023-01-28T02:06:31.560Z,5.97
2023-01-28T02:08:58.422Z,4.45
2023-01-28T02:11:31.032Z,4.40
2023-01-28T02:14:01.316Z,3.92
2023-01-28T02:16:28.231Z,7.07
2023-01-28T02:18:54.893Z,4.10
2023-01-28T02:21:36.704Z,3.55
2023-01-28T02:24:24.837Z,7.05
2023-01-28T02:29:29.953Z,6.60
2023-01-28T02:31:56.537Z,4.78
2023-01-28T02:34:48.516Z,5.95
2023-01-28T02:37:22.908Z,5.00
2023-01-28T02:39:53.046Z,6.22
2023-01-28T02:42:28.108Z,3.65
2023-01-28T02:44:54.656Z,4.40
2023-01-28T02:47:39.783Z,3.42
2023-01-28T02:50:09.859Z,4.70
2023-01-28T02:52:58.163Z,4.15
2023-01-28T02:55:45.458Z,4.47
2023-01-28T02:58:11.986Z,5.67
2023-01-28T03:00:58.753Z,5.03
2023-01-28T03:03:50.681Z,6.20
2023-01-28T03:06:21.862Z,4.22
2023-01-28T03:09:13.748Z,4.72
2023-01-28T03:12:01.429Z,5.28
2023-01-28T03:14:47.069Z,3.65
2023-01-28T03:17:45.440Z,5.10
2023-01-28T03:20:31.040Z,4.43
2023-01-28T03:23:20.600Z,5.40
2023-01-28T03:26:08.417Z,4.25
2023-01-28T03:28:55.114Z,4.60
2023-01-28T03:31:41.188Z,7.43
2023-01-28T03:34:27.914Z,5.32
2023-01-28T03:36:55.028Z,5.00
2023-01-28T03:39:29.239Z,3.63
2023-01-28T03:41:57.595Z,3.28
2023-01-28T03:44:43.103Z,5.75
2023-01-28T03:47:11.396Z,4.00
2023-01-28T03:49:40.401Z,3.50
2023-01-28T03:52:07.057Z,4.43
2023-01-28T03:54:33.614Z,5.60
2023-01-28T03:57:00.226Z,4.45
2023-01-28T03:59:26.775Z,4.03
2023-01-28T04:01:53.369Z,4.93
2023-01-28T04:04:29.017Z,4.28
2023-01-28T04:06:55.684Z,3.65
2023-01-28T04:09:22.668Z,8.90
2023-01-28T04:11:50.652Z,5.20
2023-01-28T04:14:18.513Z,6.22
2023-01-28T04:16:45.614Z,6.30
2023-01-28T04:19:13.014Z,4.90
2023-01-28T04:21:39.881Z,5.80
2023-01-28T04:24:06.813Z,7.60
2023-01-28T04:26:33.408Z,4.50
2023-01-28T04:29:00.000Z,3.97
2023-01-28T04:31:26.636Z,5.53
2023-01-28T04:33:53.281Z,4.50
2023-01-28T04:36:19.936Z,3.80
2023-01-28T04:38:46.571Z,4.53
2023-01-28T04:41:13.164Z,3.53
2023-01-28T04:43:39.724Z,4.70
2023-01-28T04:46:06.578Z,8.40
2023-01-28T04:48:34.841Z,6.40
2023-01-28T04:51:01.690Z,8.73
2023-01-28T04:53:28.253Z,4.45
2023-01-28T04:55:54.862Z,5.80
2023-01-28T04:58:21.404Z,7.80
2023-01-28T05:00:54.027Z,8.38
2023-01-28T05:03:20.610Z,8.63
2023-01-28T05:05:47.152Z,6.78
2023-01-28T05:08:13.761Z,5.47
2023-01-28T05:10:40.555Z,6.38
2023-01-28T05:13:07.172Z,4.57
2023-01-28T05:15:33.715Z,4.22
2023-01-28T05:18:00.272Z,5.78
2023-01-28T05:20:26.852Z,4.47
2023-01-28T05:22:53.467Z,7.93
2023-01-28T05:25:20.065Z,4.43
2023-01-28T05:27:51.449Z,7.05
2023-01-28T05:30:19.469Z,5.43
2023-01-28T05:32:46.121Z,4.82
2023-01-28T05:35:12.957Z,5.35
2023-01-28T05:37:39.718Z,4.18
2023-01-28T05:40:06.981Z,3.47
2023-01-28T05:42:33.557Z,5.70
2023-01-28T05:45:01.108Z,4.90
2023-01-28T05:47:27.739Z,4.18
2023-01-28T05:49:54.294Z,5.85
2023-01-28T05:52:20.880Z,5.15
2023-01-28T05:54:48.417Z,7.95
2023-01-28T05:57:15.028Z,5.35
2023-01-28T05:59:41.594Z,5.95
2023-01-28T06:02:08.219Z,4.53
2023-01-28T06:04:34.821Z,4.13
2023-01-28T06:07:01.394Z,5.78
2023-01-28T06:09:27.997Z,5.30
2023-01-28T06:11:54.553Z,6.45
2023-01-28T06:14:21.113Z,5.53
2023-01-28T06:16:47.760Z,4.25
2023-01-28T06:19:14.400Z,6.05
2023-01-28T06:21:40.997Z,3.90
2023-01-28T06:24:07.826Z,5.18
2023-01-28T06:26:34.414Z,6.03
2023-01-28T06:29:00.996Z,5.18
2023-01-28T06:31:27.606Z,5.35
2023-01-28T06:33:54.170Z,4.43
2023-01-28T06:36:20.808Z,4.90
2023-01-28T06:38:47.473Z,4.50
2023-01-28T06:41:14.025Z,5.78
2023-01-28T06:43:40.636Z,5.03
2023-01-28T06:46:07.240Z,4.90
2023-01-28T06:48:33.901Z,5.35
2023-01-28T06:51:00.469Z,5.35
2023-01-28T06:53:27.037Z,5.00
2023-01-28T06:55:53.614Z,5.93
2023-01-28T06:58:20.235Z,5.65
2023-01-28T07:00:46.770Z,5.53
2023-01-28T07:03:13.491Z,5.50
2023-01-28T07:05:40.207Z,4.18
2023-01-28T07:08:06.916Z,6.05
2023-01-28T07:10:33.487Z,5.07
2023-01-28T07:13:00.105Z,4.25
2023-01-28T07:15:26.691Z,4.82
2023-01-28T07:17:53.263Z,5.22
2023-01-28T07:20:19.972Z,5.78
2023-01-28T07:22:46.692Z,5.97
2023-01-28T07:25:14.841Z,4.53
2023-01-28T07:27:52.672Z,6.57
2023-01-28T07:30:20.673Z,6.10
2023-01-28T07:32:47.732Z,5.85
2023-01-28T07:35:14.419Z,5.13
2023-01-28T07:37:41.383Z,7.40
2023-01-28T07:40:08.998Z,7.13
2023-01-28T07:42:35.693Z,6.13
2023-01-28T07:45:02.429Z,7.07
2023-01-28T07:47:29.031Z,5.70
2023-01-28T07:49:56.810Z,5.97
2023-01-28T07:52:23.401Z,6.28
2023-01-28T07:54:49.985Z,5.75
2023-01-28T07:57:23.185Z,6.45
2023-01-28T07:59:51.030Z,7.85
2023-01-28T08:02:18.421Z,5.03
2023-01-28T08:04:46.476Z,8.80
2023-01-28T08:07:13.333Z,6.65
2023-01-28T08:09:39.961Z,8.20
2023-01-28T08:12:06.660Z,6.70
2023-01-28T08:14:33.282Z,6.80
2023-01-28T08:16:59.936Z,8.10
2023-01-28T08:19:26.802Z,14.85
2023-01-28T08:21:53.364Z,12.75
2023-01-28T08:24:20.068Z,9.68
2023-01-28T08:26:48.699Z,5.97
2023-01-28T08:29:15.311Z,6.45
2023-01-28T08:31:41.934Z,7.03
2023-01-28T08:34:08.511Z,6.38
2023-01-28T08:36:35.080Z,5.18
2023-01-28T08:39:01.659Z,6.50
2023-01-28T08:41:28.257Z,5.43
2023-01-28T08:43:54.821Z,4.55
2023-01-28T08:46:21.487Z,5.30
2023-01-28T08:48:50.230Z,5.68
2023-01-28T08:51:16.768Z,6.43
2023-01-28T08:53:43.329Z,6.10
2023-01-28T08:56:09.913Z,6.13
2023-01-28T08:58:36.652Z,5.50
2023-01-28T09:01:06.966Z,4.63
2023-01-28T09:03:33.776Z,5.00
2023-01-28T09:06:04.530Z,6.07
2023-01-28T09:08:31.179Z,4.97
2023-01-28T09:10:59.993Z,6.65
2023-01-28T09:13:27.150Z,6.53
2023-01-28T09:15:53.795Z,6.07
2023-01-28T09:18:20.485Z,8.75
2023-01-28T09:20:47.088Z,6.65
2023-01-28T09:23:14.214Z,6.55
2023-01-28T09:25:40.950Z,7.07
2023-01-28T09:28:07.778Z,6.65
2023-01-28T09:30:37.283Z,5.50
2023-01-28T09:33:04.400Z,7.22
2023-01-28T09:35:31.239Z,8.13
2023-01-28T09:37:59.072Z,9.15
2023-01-28T09:40:41.276Z,6.28
2023-01-28T09:43:31.436Z,6.60
2023-01-28T09:46:03.877Z,8.50
2023-01-28T09:48:36.148Z,7.43
2023-01-28T09:51:02.871Z,7.63
2023-01-28T09:53:35.500Z,7.55
2023-01-28T09:56:32.680Z,6.22
2023-01-28T09:59:24.045Z,7.00
2023-01-28T10:02:04.936Z,5.72
2023-01-28T10:04:59.081Z,11.75
2023-01-28T10:07:50.571Z,7.35
2023-01-28T10:10:29.665Z,8.40
2023-01-28T10:13:12.865Z,9.35
2023-01-28T10:15:54.870Z,7.95
2023-01-28T10:18:33.472Z,10.20
2023-01-28T10:21:08.781Z,8.88
2023-01-28T10:23:50.060Z,13.00
2023-01-28T10:26:25.893Z,8.50
2023-01-28T10:28:58.706Z,11.05
2023-01-28T10:31:32.573Z,10.48
2023-01-28T10:33:59.769Z,9.88
2023-01-28T10:36:26.677Z,14.45
2023-01-28T10:38:53.322Z,10.88
2023-01-28T10:41:22.156Z,12.80
2023-01-28T10:43:49.903Z,14.02
2023-01-28T10:46:23.571Z,15.93
2023-01-28T10:49:13.549Z,18.95
2023-01-28T10:51:42.316Z,17.65
2023-01-28T10:54:24.157Z,22.25
2023-01-28T10:56:56.260Z,17.40
2023-01-28T10:59:30.549Z,26.00
2023-01-28T11:02:05.346Z,21.45
2023-01-28T11:04:34.902Z,21.25
2023-01-28T11:07:07.184Z,19.38
2023-01-28T11:09:35.937Z,18.90
2023-01-28T11:12:13.356Z,20.60
2023-01-28T11:14:51.551Z,15.67
2023-01-28T11:19:45.923Z,18.17
2023-01-28T11:22:42.681Z,19.48
2023-01-28T11:25:32.063Z,18.48
2023-01-28T11:28:00.118Z,16.20
2023-01-28T11:30:29.505Z,16.10
2023-01-28T11:33:05.422Z,16.30
2023-01-28T11:35:32.192Z,20.88
2023-01-28T11:37:59.886Z,16.02
2023-01-28T11:40:27.291Z,17.25
2023-01-28T11:42:57.879Z,15.85
2023-01-28T11:45:59.700Z,15.73
2023-01-28T11:48:40.052Z,16.80
2023-01-28T11:51:43.194Z,17.38
2023-01-28T11:54:27.952Z,17.40
2023-01-28T11:57:17.779Z,17.88
2023-01-28T12:00:03.237Z,17.30
2023-01-28T12:02:58.984Z,16.02
2023-01-28T12:06:00.977Z,16.75
2023-01-28T12:08:49.955Z,14.23
2023-01-28T12:11:52.809Z,15.40
2023-01-28T12:14:43.952Z,20.60
2023-01-28T12:17:38.249Z,14.15
2023-01-28T12:20:19.921Z,13.77
2023-01-28T12:23:01.581Z,15.20
2023-01-28T12:25:36.486Z,14.13
2023-01-28T12:28:30.785Z,14.90
2023-01-28T12:31:16.067Z,11.93
2023-01-28T12:33:52.529Z,17.40
2023-01-28T12:36:31.055Z,13.93
2023-01-28T12:39:03.520Z,13.20
2023-01-28T12:42:10.588Z,16.55
2023-01-28T12:44:42.589Z,13.90
2023-01-28T12:47:11.920Z,12.50
2023-01-28T12:50:04.885Z,14.20
2023-01-28T12:52:44.062Z,13.05
2023-01-28T12:55:15.805Z,12.15
2023-01-28T12:57:43.070Z,12.05
2023-01-28T13:00:37.421Z,14.40
2023-01-28T13:03:30.630Z,11.88
2023-01-28T13:06:01.980Z,14.35
2023-01-28T13:08:29.790Z,13.25
2023-01-28T13:11:01.059Z,13.80
2023-01-28T13:13:31.189Z,14.32
2023-01-28T13:15:57.868Z,14.00
2023-01-28T13:18:33.364Z,13.90
2023-01-28T13:21:01.915Z,16.35
2023-01-28T13:26:12.463Z,14.40
2023-01-28T13:28:39.096Z,13.88
2023-01-28T13:31:08.716Z,13.43
2023-01-28T13:33:40.940Z,12.75
2023-01-28T13:36:27.753Z,14.27
2023-01-28T13:39:16.074Z,14.65
2023-01-28T13:41:48.691Z,15.23
2023-01-28T13:44:21.161Z,14.40
2023-01-28T13:46:47.757Z,15.05
2023-01-28T13:49:18.361Z,16.45
2023-01-28T13:51:58.660Z,13.93
2023-01-28T13:54:26.332Z,12.52
2023-01-28T13:57:02.128Z,14.80
2023-01-28T13:59:34.404Z,12.80
2023-01-28T14:02:19.505Z,13.88
2023-01-28T14:05:24.588Z,15.15
2023-01-28T14:07:59.481Z,11.80
2023-01-28T14:10:34.878Z,13.00
2023-01-28T14:13:04.472Z,11.07
2023-01-28T14:15:34.015Z,10.95
2023-01-28T14:18:00.848Z,12.80
2023-01-28T14:20:37.850Z,12.82
2023-01-28T14:23:06.562Z,11.43
2023-01-28T14:25:48.057Z,11.15
2023-01-28T14:28:40.000Z,9.68
2023-01-28T14:31:15.538Z,11.13
2023-01-28T14:33:43.530Z,10.88
2023-01-28T14:36:13.145Z,10.57
2023-01-28T14:38:41.693Z,10.05
2023-01-28T14:43:36.575Z,11.95
2023-01-28T14:46:24.346Z,9.63
2023-01-28T14:49:18.327Z,13.02
2023-01-28T14:52:08.653Z,10.43
2023-01-28T14:55:01.682Z,13.85
2023-01-28T14:57:51.029Z,11.05
2023-01-28T15:00:26.153Z,13.88
2023-01-28T15:02:52.941Z,11.35
2023-01-28T15:05:25.609Z,11.63
2023-01-28T15:07:52.320Z,11.82
2023-01-28T15:10:28.667Z,14.00
2023-01-28T15:12:58.694Z,12.73
2023-01-28T15:15:31.783Z,11.85
2023-01-28T15:18:13.651Z,14.90
2023-01-28T15:20:45.301Z,12.35
2023-01-28T15:25:46.381Z,15.15
2023-01-28T15:28:26.832Z,11.57
2023-01-28T15:30:53.497Z,15.70
2023-01-28T15:33:22.221Z,13.23
2023-01-28T15:35:53.942Z,13.18
2023-01-28T15:38:21.133Z,11.82
2023-01-28T15:40:55.469Z,12.38
2023-01-28T15:43:26.016Z,11.98
2023-01-28T15:45:56.012Z,14.88
2023-01-28T15:48:24.624Z,13.15
2023-01-28T15:51:02.468Z,14.82
2023-01-28T15:53:34.144Z,12.88
2023-01-28T15:56:14.573Z,16.73
2023-01-28T15:58:43.199Z,17.58
2023-01-28T16:01:09.819Z,15.50
2023-01-28T16:03:39.945Z,13.73
2023-01-28T16:06:09.785Z,16.83
2023-01-28T16:08:47.084Z,18.52
2023-01-28T16:11:14.313Z,14.25
2023-01-28T16:13:43.117Z,17.38
2023-01-28T16:16:10.400Z,17.67
2023-01-28T16:18:56.057Z,14.43
2023-01-28T16:21:28.447Z,16.38
2023-01-28T16:24:05.902Z,16.38
2023-01-28T16:26:34.751Z,14.87
2023-01-28T16:29:13.312Z,16.40
2023-01-28T16:31:39.930Z,12.90
2023-01-28T16:34:06.587Z,15.65
2023-01-28T16:36:33.139Z,16.67
2023-01-28T16:38:59.824Z,14.15
2023-01-28T16:41:28.763Z,13.73
2023-01-28T16:43:55.408Z,18.45
2023-01-28T16:46:22.060Z,15.50
2023-01-28T16:48:48.699Z,13.52
2023-01-28T16:51:17.598Z,16.48
2023-01-28T16:53:48.401Z,15.65
2023-01-28T16:56:36.038Z,162.43
2023-01-28T16:59:03.208Z,291.52
2023-01-28T17:01:30.228Z,112.78
2023-01-28T17:03:56.916Z,23.60
2023-01-28T17:06:23.585Z,17.92
2023-01-28T17:08:50.149Z,21.02
2023-01-28T17:11:16.874Z,20.58
2023-01-28T17:13:43.453Z,30.40
2023-01-28T17:16:10.046Z,22.35
2023-01-28T17:18:36.654Z,24.73
2023-01-28T17:21:05.576Z,23.13
2023-01-28T17:23:32.441Z,30.90
2023-01-28T17:26:08.981Z,26.52
2023-01-28T17:28:35.757Z,23.75
2023-01-28T17:31:07.283Z,23.77
2023-01-28T17:33:34.132Z,31.60
2023-01-28T17:36:02.025Z,29.80
2023-01-28T17:38:28.721Z,31.63
2023-01-28T17:40:55.351Z,29.65
2023-01-28T17:43:22.447Z,33.50
2023-01-28T17:45:49.072Z,29.08
2023-01-28T17:48:16.256Z,24.98
2023-01-28T17:50:43.020Z,36.05
2023-01-28T17:53:10.341Z,35.88
2023-01-28T17:55:39.729Z,25.40
2023-01-28T17:58:06.515Z,28.83
2023-01-28T18:00:33.318Z,21.63
2023-01-28T18:02:59.883Z,23.00
2023-01-28T18:05:26.429Z,22.10
2023-01-28T18:07:53.074Z,26.88
2023-01-28T18:10:20.723Z,24.00
2023-01-28T18:12:47.332Z,24.13
2023-01-28T18:15:14.188Z,28.50
2023-01-28T18:17:41.079Z,30.65
2023-01-28T18:20:08.094Z,40.58
2023-01-28T18:22:34.684Z,31.45
2023-01-28T18:25:01.225Z,31.13
2023-01-28T18:27:27.957Z,28.05
2023-01-28T18:29:54.555Z,27.13
2023-01-28T18:32:21.128Z,33.03
2023-01-28T18:34:47.717Z,30.30
2023-01-28T18:37:14.365Z,31.95
2023-01-28T18:39:42.311Z,24.38
2023-01-28T18:42:09.950Z,31.45
2023-01-28T18:44:37.769Z,26.88
2023-01-28T18:47:04.410Z,27.42
2023-01-28T18:49:31.073Z,24.85
2023-01-28T18:51:57.773Z,26.83
2023-01-28T18:54:24.863Z,25.60
2023-01-28T18:56:52.197Z,29.67
2023-01-28T18:59:19.081Z,28.10
2023-01-28T19:01:47.939Z,29.23
2023-01-28T19:04:15.653Z,29.77
2023-01-28T19:06:43.178Z,29.75
2023-01-28T19:09:11.536Z,29.30
2023-01-28T19:14:05.216Z,31.23
2023-01-28T19:16:31.886Z,30.38
2023-01-28T19:19:00.569Z,29.55
2023-01-28T19:21:29.198Z,34.35
2023-01-28T19:24:00.249Z,29.02
2023-01-28T19:26:27.688Z,28.15
2023-01-28T19:28:54.535Z,28.08
2023-01-28T19:31:22.063Z,33.75
2023-01-28T19:33:49.388Z,38.03
2023-01-28T19:36:16.278Z,30.45
2023-01-28T19:38:43.040Z,32.50
2023-01-28T19:41:09.695Z,30.73
2023-01-28T19:43:36.338Z,31.98
2023-01-28T19:46:04.592Z,32.63
2023-01-28T19:50:58.115Z,32.17
2023-01-28T19:53:24.821Z,32.22
2023-01-28T19:55:52.333Z,28.88
2023-01-28T19:58:19.108Z,28.25
2023-01-28T20:00:45.764Z,30.10
2023-01-28T20:03:12.881Z,31.08
2023-01-28T20:05:39.600Z,32.85
2023-01-28T20:08:06.621Z,29.38
2023-01-28T20:10:33.180Z,30.67
2023-01-28T20:12:59.721Z,33.03
2023-01-28T20:15:26.560Z,30.17
2023-01-28T20:17:53.158Z,32.50
2023-01-28T20:20:19.812Z,29.52
2023-01-28T20:22:46.381Z,32.50
2023-01-28T20:25:13.086Z,32.20
2023-01-28T20:27:39.710Z,30.02
2023-01-28T20:30:06.904Z,35.08
2023-01-28T20:32:33.561Z,34.70
2023-01-28T20:35:00.207Z,27.58
2023-01-28T20:37:26.893Z,27.00
2023-01-28T20:39:53.441Z,31.13
2023-01-28T20:42:20.209Z,27.92
2023-01-28T20:44:46.788Z,32.60
2023-01-28T20:47:13.432Z,29.58
2023-01-28T20:49:39.987Z,28.70
2023-01-28T20:52:06.624Z,34.30
2023-01-28T20:54:33.224Z,27.05
2023-01-28T20:56:59.786Z,32.13
2023-01-28T20:59:26.580Z,28.25
2023-01-28T21:01:53.207Z,30.50
2023-01-28T21:04:19.785Z,29.48
2023-01-28T21:06:46.347Z,39.00
2023-01-28T21:09:12.916Z,30.70
2023-01-28T21:11:39.551Z,33.95
2023-01-28T21:14:06.293Z,31.17
2023-01-28T21:16:32.908Z,30.65
2023-01-28T21:18:59.530Z,31.17
2023-01-28T21:21:27.850Z,31.80
2023-01-28T21:26:24.114Z,28.02
2023-01-28T21:28:50.748Z,35.80
2023-01-28T21:31:20.613Z,35.22
2023-01-28T21:33:55.125Z,28.27
2023-01-28T21:36:22.348Z,33.90
2023-01-28T21:38:56.116Z,31.17
2023-01-28T21:41:22.868Z,29.70
2023-01-28T21:43:53.864Z,27.90
2023-01-28T21:46:25.854Z,32.53
2023-01-28T21:48:56.938Z,29.13
2023-01-28T21:51:35.937Z,28.70
2023-01-28T21:54:04.143Z,26.90
2023-01-28T21:56:30.812Z,31.92
2023-01-28T21:59:15.867Z,28.33
2023-01-28T22:01:46.177Z,28.20
2023-01-28T22:04:13.067Z,30.30
2023-01-28T22:06:42.112Z,29.52
2023-01-28T22:09:13.926Z,32.45
2023-01-28T22:11:41.874Z,27.70
2023-01-28T22:14:08.925Z,31.40
2023-01-28T22:16:35.864Z,29.83
2023-01-28T22:19:02.961Z,29.70
2023-01-28T22:21:29.537Z,28.38
2023-01-28T22:23:56.097Z,32.88
2023-01-28T22:26:23.043Z,31.58
2023-01-28T22:28:49.696Z,29.70
2023-01-28T22:31:17.082Z,33.75
2023-01-28T22:33:44.057Z,28.47
2023-01-28T22:36:15.817Z,30.65
2023-01-28T22:38:43.914Z,32.17
2023-01-28T22:41:19.200Z,32.42
2023-01-28T22:43:46.919Z,29.33
2023-01-28T22:46:13.586Z,29.92
2023-01-28T22:48:40.259Z,35.47
2023-01-28T22:51:10.433Z,29.80
2023-01-28T22:53:37.001Z,31.92
2023-01-28T22:56:03.748Z,26.33
2023-01-28T22:58:31.665Z,31.35
2023-01-28T23:00:59.108Z,31.65
2023-01-28T23:03:26.009Z,30.52
2023-01-28T23:05:52.659Z,24.98
2023-01-28T23:08:19.295Z,28.35
2023-01-28T23:10:50.297Z,32.38
2023-01-28T23:13:19.246Z,31.75
2023-01-28T23:16:08.657Z,31.92
2023-01-28T23:18:54.355Z,26.50
2023-01-28T23:21:45.707Z,30.88
2023-01-28T23:24:21.451Z,30.65
2023-01-28T23:26:58.694Z,32.67
2023-01-28T23:29:26.990Z,26.08
2023-01-28T23:32:02.147Z,32.45
2023-01-28T23:34:37.146Z,29.73
2023-01-28T23:37:05.219Z,29.10
2023-01-28T23:39:31.913Z,31.77
2023-01-28T23:41:58.608Z,34.17
2023-01-28T23:44:26.357Z,31.48
2023-01-28T23:46:53.790Z,27.20
2023-01-28T23:49:20.969Z,28.77
2023-01-28T23:51:47.575Z,28.00
2023-01-28T23:54:14.165Z,27.90
2023-01-28T23:56:40.720Z,31.40
2023-01-28T23:59:07.313Z,27.88
